createdAt,value
2019-02-25T00:00:12.447Z,8.00
2019-02-25T00:01:15.458Z,8.00
2019-02-25T00:02:18.405Z,8.00
2019-02-25T00:03:19.517Z,8.00
2019-02-25T00:04:20.520Z,8.00
2019-02-25T00:05:21.536Z,8.00
2019-02-25T00:06:22.540Z,8.00
2019-02-25T00:07:23.553Z,8.00
2019-02-25T00:08:24.574Z,8.00
2019-02-25T00:09:25.592Z,8.00
2019-02-25T00:10:26.599Z,8.00
2019-02-25T00:11:27.619Z,8.00
2019-02-25T00:12:28.647Z,8.00
2019-02-25T00:13:29.692Z,8.00
2019-02-25T00:14:30.700Z,8.00
2019-02-25T00:15:31.744Z,8.00
2019-02-25T00:16:32.849Z,8.00
2019-02-25T00:17:34.564Z,8.00
2019-02-25T00:18:35.575Z,8.00
2019-02-25T00:19:36.593Z,8.00
2019-02-25T00:20:37.907Z,8.00
2019-02-25T00:21:38.929Z,8.00
2019-02-25T00:22:39.945Z,8.00
2019-02-25T00:23:40.960Z,8.00
2019-02-25T00:24:41.971Z,8.00
2019-02-25T00:25:42.986Z,8.00
2019-02-25T00:26:44.101Z,8.00
2019-02-25T00:27:45.125Z,7.90
2019-02-25T00:28:46.252Z,7.90
2019-02-25T00:29:47.268Z,7.90
2019-02-25T00:30:48.293Z,7.90
2019-02-25T00:31:49.297Z,7.80
2019-02-25T00:32:50.329Z,7.80
2019-02-25T00:33:51.339Z,7.80
2019-02-25T00:34:52.360Z,7.80
2019-02-25T00:35:53.421Z,7.80
2019-02-25T00:36:54.476Z,7.80
2019-02-25T00:37:55.491Z,7.80
2019-02-25T00:38:56.512Z,7.80
2019-02-25T00:39:57.536Z,7.80
2019-02-25T00:40:58.555Z,7.80
2019-02-25T00:41:59.775Z,7.80
2019-02-25T00:43:00.820Z,7.80
2019-02-25T00:44:01.840Z,7.80
2019-02-25T00:45:06.193Z,7.70
2019-02-25T00:46:07.288Z,7.70
2019-02-25T00:47:08.300Z,7.70
2019-02-25T00:48:09.332Z,7.60
2019-02-25T00:49:10.349Z,7.60
2019-02-25T00:50:15.181Z,7.60
2019-02-25T00:51:16.212Z,7.60
2019-02-25T00:52:17.212Z,7.50
2019-02-25T00:53:18.335Z,7.50
2019-02-25T00:54:19.348Z,7.50
2019-02-25T00:55:20.363Z,7.50
2019-02-25T00:56:21.388Z,7.50
2019-02-25T00:57:22.396Z,7.50
2019-02-25T00:58:23.426Z,7.50
2019-02-25T00:59:24.431Z,7.50
2019-02-25T01:00:25.452Z,7.50
2019-02-25T01:01:26.475Z,7.50
2019-02-25T01:02:27.488Z,7.40
2019-02-25T01:03:28.532Z,7.40
2019-02-25T01:04:29.680Z,7.40
2019-02-25T01:05:30.684Z,7.30
2019-02-25T01:06:31.693Z,7.40
2019-02-25T01:07:32.709Z,7.30
2019-02-25T01:08:33.756Z,7.30
2019-02-25T01:09:34.868Z,7.30
2019-02-25T01:10:35.881Z,7.30
2019-02-25T01:11:36.905Z,7.30
2019-02-25T01:12:38.200Z,7.30
2019-02-25T01:13:39.229Z,7.30
2019-02-25T01:14:40.242Z,7.30
2019-02-25T01:15:41.248Z,7.30
2019-02-25T01:16:42.267Z,7.30
2019-02-25T01:17:43.316Z,7.20
2019-02-25T01:18:44.645Z,7.20
2019-02-25T01:19:45.917Z,7.20
2019-02-25T01:20:46.919Z,7.20
2019-02-25T01:21:47.927Z,7.20
2019-02-25T01:22:48.936Z,7.10
2019-02-25T01:23:49.991Z,7.10
2019-02-25T01:24:51.000Z,7.10
2019-02-25T01:25:52.009Z,7.10
2019-02-25T01:26:53.022Z,7.10
2019-02-25T01:27:54.040Z,7.00
2019-02-25T01:28:55.075Z,7.00
2019-02-25T01:29:56.091Z,7.00
2019-02-25T01:30:57.112Z,7.00
2019-02-25T01:31:58.130Z,7.00
2019-02-25T01:32:59.160Z,7.00
2019-02-25T01:34:00.344Z,7.00
2019-02-25T01:35:01.370Z,7.00
2019-02-25T01:36:02.745Z,7.00
2019-02-25T01:37:03.770Z,7.00
2019-02-25T01:38:04.788Z,7.00
2019-02-25T01:39:06.330Z,7.00
2019-02-25T01:40:09.744Z,6.90
2019-02-25T01:41:10.758Z,6.90
2019-02-25T01:42:11.999Z,6.80
2019-02-25T01:43:13.016Z,6.80
2019-02-25T01:44:14.034Z,6.80
2019-02-25T01:45:16.772Z,6.80
2019-02-25T01:46:17.854Z,6.80
2019-02-25T01:47:18.865Z,6.80
2019-02-25T01:48:19.890Z,6.80
2019-02-25T01:49:20.904Z,6.80
2019-02-25T01:50:21.917Z,6.80
2019-02-25T01:51:23.200Z,6.80
2019-02-25T01:52:24.227Z,6.70
2019-02-25T01:53:25.236Z,6.70
2019-02-25T01:54:26.260Z,6.70
2019-02-25T01:55:27.264Z,6.70
2019-02-25T01:56:28.281Z,6.60
2019-02-25T01:57:29.288Z,6.60
2019-02-25T01:58:30.381Z,6.60
2019-02-25T01:59:31.415Z,6.60
2019-02-25T02:00:32.428Z,6.70
2019-02-25T02:01:33.435Z,6.70
2019-02-25T02:02:34.456Z,6.70
2019-02-25T02:03:35.469Z,6.70
2019-02-25T02:04:36.488Z,6.70
2019-02-25T02:05:37.508Z,6.70
2019-02-25T02:06:38.528Z,6.80
2019-02-25T02:07:39.539Z,6.70
2019-02-25T02:08:40.570Z,6.70
2019-02-25T02:09:41.595Z,6.70
2019-02-25T02:10:42.601Z,6.70
2019-02-25T02:11:43.623Z,6.70
2019-02-25T02:12:44.628Z,6.70
2019-02-25T02:13:45.643Z,6.70
2019-02-25T02:14:46.667Z,6.70
2019-02-25T02:15:47.678Z,6.70
2019-02-25T02:16:48.684Z,6.70
2019-02-25T02:17:49.700Z,6.70
2019-02-25T02:18:50.704Z,6.70
2019-02-25T02:19:51.729Z,6.70
2019-02-25T02:20:52.799Z,6.70
2019-02-25T02:21:53.816Z,6.70
2019-02-25T02:22:54.905Z,6.70
2019-02-25T02:23:55.988Z,6.70
2019-02-25T02:24:57.020Z,6.70
2019-02-25T02:25:58.052Z,6.70
2019-02-25T02:26:59.056Z,6.70
2019-02-25T02:28:00.128Z,6.70
2019-02-25T02:29:01.225Z,6.70
2019-02-25T02:30:05.145Z,6.70
2019-02-25T02:31:06.162Z,6.70
2019-02-25T02:32:07.184Z,6.70
2019-02-25T02:33:08.213Z,6.60
2019-02-25T02:34:09.209Z,6.60
2019-02-25T02:35:10.347Z,6.60
2019-02-25T02:36:11.807Z,6.60
2019-02-25T02:37:12.960Z,6.60
2019-02-25T02:38:13.979Z,6.50
2019-02-25T02:39:15.003Z,6.50
2019-02-25T02:40:16.024Z,6.50
2019-02-25T02:41:17.029Z,6.50
2019-02-25T02:42:19.168Z,6.50
2019-02-25T02:43:20.264Z,6.50
2019-02-25T02:44:21.286Z,6.50
2019-02-25T02:45:26.012Z,6.50
2019-02-25T02:46:46.109Z,6.40
2019-02-25T02:47:52.677Z,6.40
2019-02-25T02:48:57.304Z,6.40
2019-02-25T02:50:00.278Z,6.30
2019-02-25T02:51:01.285Z,6.30
2019-02-25T02:52:02.296Z,6.30
2019-02-25T02:53:03.543Z,6.20
2019-02-25T02:54:04.617Z,6.20
2019-02-25T02:55:06.639Z,6.20
2019-02-25T02:56:07.665Z,6.20
2019-02-25T02:57:08.671Z,6.20
2019-02-25T02:58:09.684Z,6.20
2019-02-25T02:59:10.692Z,6.20
2019-02-25T03:00:14.119Z,6.20
2019-02-25T03:01:15.128Z,6.20
2019-02-25T03:02:16.139Z,6.20
2019-02-25T03:03:17.156Z,6.10
2019-02-25T03:04:18.432Z,6.10
2019-02-25T03:05:19.641Z,6.10
2019-02-25T03:06:20.657Z,6.10
2019-02-25T03:07:21.678Z,6.10
2019-02-25T03:08:22.702Z,6.10
2019-02-25T03:09:23.712Z,6.10
2019-02-25T03:10:24.737Z,6.10
2019-02-25T03:11:25.754Z,6.10
2019-02-25T03:12:26.765Z,6.10
2019-02-25T03:13:27.786Z,6.10
2019-02-25T03:14:28.816Z,6.10
2019-02-25T03:15:29.878Z,6.10
2019-02-25T03:16:30.896Z,6.10
2019-02-25T03:17:31.989Z,6.10
2019-02-25T03:18:33.004Z,6.10
2019-02-25T03:19:34.017Z,6.10
2019-02-25T03:20:35.047Z,6.10
2019-02-25T03:21:36.061Z,6.10
2019-02-25T03:22:37.082Z,6.10
2019-02-25T03:23:38.098Z,6.10
2019-02-25T03:24:39.103Z,6.10
2019-02-25T03:25:40.152Z,6.10
2019-02-25T03:26:41.160Z,6.10
2019-02-25T03:27:42.176Z,6.10
2019-02-25T03:28:43.193Z,6.10
2019-02-25T03:29:44.204Z,6.10
2019-02-25T03:30:45.238Z,6.10
2019-02-25T03:31:46.255Z,6.10
2019-02-25T03:32:47.383Z,6.00
2019-02-25T03:33:48.389Z,6.00
2019-02-25T03:34:49.402Z,6.00
2019-02-25T03:35:50.440Z,6.00
2019-02-25T03:36:51.448Z,6.00
2019-02-25T03:37:52.463Z,6.00
2019-02-25T03:38:53.473Z,6.00
2019-02-25T03:39:54.484Z,6.00
2019-02-25T03:40:55.508Z,6.00
2019-02-25T03:41:56.525Z,6.00
2019-02-25T03:42:57.835Z,6.00
2019-02-25T03:43:59.045Z,5.90
2019-02-25T03:45:00.107Z,5.90
2019-02-25T03:46:01.568Z,5.90
2019-02-25T03:47:02.594Z,5.90
2019-02-25T03:48:03.601Z,5.90
2019-02-25T03:49:04.632Z,5.90
2019-02-25T03:50:06.439Z,5.90
2019-02-25T03:51:08.016Z,5.90
2019-02-25T03:52:09.185Z,5.90
2019-02-25T03:53:10.193Z,5.90
2019-02-25T03:54:11.207Z,5.90
2019-02-25T03:55:16.818Z,5.90
2019-02-25T03:56:17.830Z,5.80
2019-02-25T03:57:18.840Z,5.80
2019-02-25T03:58:19.848Z,5.70
2019-02-25T03:59:20.863Z,5.60
2019-02-25T04:00:24.285Z,5.50
2019-02-25T04:01:25.313Z,5.50
2019-02-25T04:02:26.315Z,5.40
2019-02-25T04:03:27.337Z,5.40
2019-02-25T04:04:28.548Z,5.40
2019-02-25T04:05:29.662Z,5.40
2019-02-25T04:06:30.689Z,5.40
2019-02-25T04:07:31.767Z,5.40
2019-02-25T04:08:32.781Z,5.40
2019-02-25T04:09:33.800Z,5.40
2019-02-25T04:10:34.814Z,5.30
2019-02-25T04:11:35.841Z,5.30
2019-02-25T04:12:36.846Z,5.30
2019-02-25T04:13:37.853Z,5.40
2019-02-25T04:14:39.208Z,5.40
2019-02-25T04:15:42.141Z,5.40
2019-02-25T04:16:43.168Z,5.40
2019-02-25T04:17:44.385Z,5.40
2019-02-25T04:18:45.388Z,5.40
2019-02-25T04:19:46.400Z,5.50
2019-02-25T04:20:47.414Z,5.50
2019-02-25T04:21:48.428Z,5.50
2019-02-25T04:22:49.451Z,5.50
2019-02-25T04:23:50.458Z,5.60
2019-02-25T04:24:51.476Z,5.60
2019-02-25T04:25:55.655Z,5.60
2019-02-25T04:26:56.679Z,5.60
2019-02-25T04:27:57.688Z,5.60
2019-02-25T04:28:58.699Z,5.60
2019-02-25T04:29:59.721Z,5.60
2019-02-25T04:31:00.729Z,5.60
2019-02-25T04:32:01.757Z,5.70
2019-02-25T04:33:02.768Z,5.70
2019-02-25T04:34:03.793Z,5.70
2019-02-25T04:35:07.092Z,5.70
2019-02-25T04:36:08.097Z,5.70
2019-02-25T04:37:09.172Z,5.70
2019-02-25T04:38:10.182Z,5.60
2019-02-25T04:39:11.210Z,5.60
2019-02-25T04:40:13.055Z,5.60
2019-02-25T04:41:14.140Z,5.60
2019-02-25T04:42:15.169Z,5.60
2019-02-25T04:43:16.238Z,5.60
2019-02-25T04:44:17.296Z,5.60
2019-02-25T04:45:19.537Z,5.60
2019-02-25T04:46:20.552Z,5.60
2019-02-25T04:47:21.568Z,5.60
2019-02-25T04:48:22.584Z,5.60
2019-02-25T04:49:23.605Z,5.70
2019-02-25T04:50:24.617Z,5.60
2019-02-25T04:51:25.641Z,5.60
2019-02-25T04:52:26.661Z,5.60
2019-02-25T04:53:27.807Z,5.50
2019-02-25T04:54:28.912Z,5.50
2019-02-25T04:55:29.933Z,5.60
2019-02-25T04:56:30.969Z,5.60
2019-02-25T04:57:31.992Z,5.60
2019-02-25T04:58:33.002Z,5.60
2019-02-25T04:59:34.012Z,5.60
2019-02-25T05:00:35.022Z,5.60
2019-02-25T05:01:36.039Z,5.50
2019-02-25T05:02:37.060Z,5.50
2019-02-25T05:03:38.074Z,5.50
2019-02-25T05:04:39.081Z,5.50
2019-02-25T05:05:40.147Z,5.50
2019-02-25T05:06:41.224Z,5.50
2019-02-25T05:07:42.349Z,5.50
2019-02-25T05:08:43.369Z,5.50
2019-02-25T05:09:44.388Z,5.50
2019-02-25T05:10:45.395Z,5.50
2019-02-25T05:11:46.424Z,5.50
2019-02-25T05:12:58.143Z,5.50
2019-02-25T05:13:59.150Z,5.50
2019-02-25T05:15:00.176Z,5.50
2019-02-25T05:16:01.187Z,5.40
2019-02-25T05:17:02.205Z,5.40
2019-02-25T05:18:03.342Z,5.30
2019-02-25T05:19:04.619Z,5.30
2019-02-25T05:20:06.332Z,5.30
2019-02-25T05:21:07.352Z,5.30
2019-02-25T05:22:08.688Z,5.30
2019-02-25T05:23:09.755Z,5.30
2019-02-25T05:24:10.779Z,5.30
2019-02-25T05:25:11.888Z,5.40
2019-02-25T05:26:12.898Z,5.40
2019-02-25T05:27:13.915Z,5.40
2019-02-25T05:28:14.932Z,5.30
2019-02-25T05:29:15.951Z,5.20
2019-02-25T05:30:16.962Z,5.20
2019-02-25T05:31:18.076Z,5.10
2019-02-25T05:32:19.131Z,5.10
2019-02-25T05:33:20.151Z,5.10
2019-02-25T05:34:21.150Z,5.10
2019-02-25T05:35:22.177Z,5.10
2019-02-25T05:36:23.192Z,5.00
2019-02-25T05:37:24.221Z,4.90
2019-02-25T05:38:25.267Z,5.00
2019-02-25T05:39:26.659Z,4.90
2019-02-25T05:40:27.720Z,4.90
2019-02-25T05:41:28.737Z,4.90
2019-02-25T05:42:29.752Z,4.90
2019-02-25T05:43:30.783Z,4.90
2019-02-25T05:44:31.826Z,4.90
2019-02-25T05:45:32.843Z,5.00
2019-02-25T05:46:33.868Z,5.00
2019-02-25T05:47:34.879Z,5.10
2019-02-25T05:48:35.985Z,5.10
2019-02-25T05:49:36.992Z,5.10
2019-02-25T05:50:38.020Z,5.10
2019-02-25T05:51:39.036Z,5.10
2019-02-25T05:52:40.084Z,5.10
2019-02-25T05:53:41.093Z,5.10
2019-02-25T05:54:42.108Z,5.10
2019-02-25T05:55:43.125Z,5.10
2019-02-25T05:56:44.156Z,5.20
2019-02-25T05:57:45.174Z,5.20
2019-02-25T05:58:46.432Z,5.20
2019-02-25T05:59:47.450Z,5.20
2019-02-25T06:00:50.359Z,5.20
2019-02-25T06:01:51.401Z,5.20
2019-02-25T06:02:52.441Z,5.20
2019-02-25T06:03:53.442Z,5.20
2019-02-25T06:04:54.475Z,5.30
2019-02-25T06:05:55.489Z,5.20
2019-02-25T06:06:56.508Z,5.20
2019-02-25T06:07:57.530Z,5.20
2019-02-25T06:08:58.538Z,5.20
2019-02-25T06:09:59.552Z,5.20
2019-02-25T06:11:00.725Z,5.20
2019-02-25T06:12:02.092Z,5.20
2019-02-25T06:13:03.129Z,5.20
2019-02-25T06:14:04.228Z,5.30
2019-02-25T06:15:13.423Z,5.30
2019-02-25T06:16:14.453Z,5.30
2019-02-25T06:17:15.472Z,5.30
2019-02-25T06:18:16.546Z,5.30
2019-02-25T06:19:17.541Z,5.30
2019-02-25T06:20:18.568Z,5.30
2019-02-25T06:21:23.815Z,5.30
2019-02-25T06:22:25.073Z,5.40
2019-02-25T06:23:26.103Z,5.40
2019-02-25T06:24:27.106Z,5.40
2019-02-25T06:25:28.146Z,5.40
2019-02-25T06:26:29.153Z,5.40
2019-02-25T06:27:30.917Z,5.40
2019-02-25T06:28:32.223Z,5.40
2019-02-25T06:29:33.241Z,5.40
2019-02-25T06:30:34.275Z,5.40
2019-02-25T06:31:35.304Z,5.40
2019-02-25T06:32:36.337Z,5.40
2019-02-25T06:33:37.400Z,5.40
2019-02-25T06:34:38.393Z,5.30
2019-02-25T06:35:39.408Z,5.30
2019-02-25T06:36:40.422Z,5.30
2019-02-25T06:37:41.431Z,5.30
2019-02-25T06:38:42.457Z,5.30
2019-02-25T06:39:43.477Z,5.30
2019-02-25T06:40:44.537Z,5.20
2019-02-25T06:41:45.557Z,5.20
2019-02-25T06:42:46.667Z,5.20
2019-02-25T06:43:49.942Z,5.20
2019-02-25T06:44:51.184Z,5.20
2019-02-25T06:45:52.212Z,5.20
2019-02-25T06:46:53.224Z,5.20
2019-02-25T06:47:54.287Z,5.30
2019-02-25T06:48:55.386Z,5.20
2019-02-25T06:49:56.396Z,5.20
2019-02-25T06:50:57.416Z,5.20
2019-02-25T06:51:58.437Z,5.20
2019-02-25T06:52:59.474Z,5.20
2019-02-25T06:54:00.569Z,5.20
2019-02-25T06:55:01.780Z,5.20
2019-02-25T06:56:02.796Z,5.20
2019-02-25T06:57:03.864Z,5.20
2019-02-25T06:58:04.891Z,5.30
2019-02-25T06:59:05.931Z,5.30
2019-02-25T07:00:12.915Z,5.30
2019-02-25T07:01:14.005Z,5.30
2019-02-25T07:02:15.028Z,5.30
2019-02-25T07:03:16.031Z,5.30
2019-02-25T07:04:19.221Z,5.40
2019-02-25T07:05:24.945Z,5.30
2019-02-25T07:06:30.676Z,5.40
2019-02-25T07:07:36.083Z,5.40
2019-02-25T07:08:53.805Z,5.40
2019-02-25T07:10:05.882Z,5.40
2019-02-25T07:11:11.568Z,5.40
2019-02-25T07:12:17.253Z,5.40
2019-02-25T07:13:20.168Z,5.40
2019-02-25T07:14:31.880Z,5.40
2019-02-25T07:15:43.415Z,5.40
2019-02-25T07:16:46.440Z,5.40
2019-02-25T07:17:49.412Z,5.30
2019-02-25T07:18:58.222Z,5.30
2019-02-25T07:20:15.344Z,5.30
2019-02-25T07:21:37.172Z,5.30
2019-02-25T07:22:40.124Z,5.30
2019-02-25T07:23:45.536Z,5.30
2019-02-25T07:24:52.873Z,5.30
2019-02-25T07:25:53.310Z,5.30
2019-02-25T07:27:04.985Z,5.30
2019-02-25T07:28:26.000Z,5.30
2019-02-25T07:29:31.833Z,5.30
2019-02-25T07:30:37.938Z,5.30
2019-02-25T07:31:43.481Z,5.40
2019-02-25T07:32:55.296Z,5.40
2019-02-25T07:33:58.206Z,5.40
2019-02-25T07:35:03.932Z,5.40
2019-02-25T07:36:06.869Z,5.50
2019-02-25T07:37:27.825Z,5.50
2019-02-25T07:38:39.028Z,5.50
2019-02-25T07:39:38.136Z,5.50
2019-02-25T07:40:46.850Z,5.60
2019-02-25T07:41:58.355Z,5.60
2019-02-25T07:43:03.903Z,5.60
2019-02-25T07:44:15.577Z,5.60
2019-02-25T07:45:27.245Z,5.60
2019-02-25T07:46:39.249Z,5.70
2019-02-25T07:47:48.162Z,5.70
2019-02-25T07:48:51.246Z,5.70
2019-02-25T07:49:56.673Z,5.70
2019-02-25T07:51:05.432Z,5.70
2019-02-25T07:52:14.287Z,5.70
2019-02-25T07:53:33.921Z,5.70
2019-02-25T07:54:42.740Z,5.80
2019-02-25T07:55:48.525Z,5.80
2019-02-25T07:57:06.422Z,5.90
2019-02-25T07:58:15.205Z,5.90
2019-02-25T07:59:26.963Z,5.90
2019-02-25T08:00:35.924Z,5.90
2019-02-25T08:01:38.841Z,6.00
2019-02-25T08:02:41.809Z,6.00
2019-02-25T08:03:44.724Z,6.00
2019-02-25T08:04:59.472Z,6.10
2019-02-25T08:06:02.444Z,6.10
2019-02-25T08:07:05.382Z,6.20
2019-02-25T08:08:11.056Z,6.20
2019-02-25T08:09:19.805Z,6.30
2019-02-25T08:10:22.773Z,6.30
2019-02-25T08:11:31.491Z,6.40
2019-02-25T08:12:40.336Z,6.40
2019-02-25T08:13:55.068Z,6.40
2019-02-25T08:14:58.008Z,6.50
2019-02-25T08:16:06.740Z,6.50
2019-02-25T08:17:26.595Z,6.50
2019-02-25T08:18:29.609Z,6.60
2019-02-25T08:19:35.367Z,6.60
2019-02-25T08:20:44.019Z,6.60
2019-02-25T08:21:46.993Z,6.70
2019-02-25T08:22:49.968Z,6.70
2019-02-25T08:23:52.896Z,6.70
2019-02-25T08:25:04.592Z,6.70
2019-02-25T08:26:22.599Z,6.70
2019-02-25T08:27:28.372Z,6.80
2019-02-25T08:28:32.640Z,6.80
2019-02-25T08:29:41.849Z,6.80
2019-02-25T08:30:50.408Z,6.90
2019-02-25T08:31:53.352Z,6.90
2019-02-25T08:32:56.273Z,6.90
2019-02-25T08:34:01.968Z,6.90
2019-02-25T08:35:13.360Z,7.00
2019-02-25T08:36:51.560Z,7.00
2019-02-25T08:38:10.565Z,7.10
2019-02-25T08:39:14.027Z,7.20
2019-02-25T08:40:26.331Z,7.20
2019-02-25T08:41:29.564Z,7.30
2019-02-25T08:42:38.303Z,7.30
2019-02-25T08:43:43.930Z,7.40
2019-02-25T08:44:49.629Z,7.40
2019-02-25T08:45:58.381Z,7.50
2019-02-25T08:47:01.321Z,7.50
2019-02-25T08:48:04.238Z,7.60
2019-02-25T08:49:09.976Z,7.70
2019-02-25T08:50:11.929Z,7.70
2019-02-25T08:51:13.076Z,7.70
2019-02-25T08:52:14.096Z,7.80
2019-02-25T08:53:15.255Z,7.80
2019-02-25T08:54:16.323Z,7.80
2019-02-25T08:55:17.354Z,7.90
2019-02-25T08:56:18.567Z,7.90
2019-02-25T08:57:19.724Z,7.90
2019-02-25T08:58:20.914Z,8.00
2019-02-25T08:59:21.943Z,8.00
2019-02-25T09:00:22.975Z,8.10
2019-02-25T09:01:24.018Z,8.10
2019-02-25T09:02:26.594Z,8.20
2019-02-25T09:03:27.701Z,8.20
2019-02-25T09:04:28.724Z,8.20
2019-02-25T09:05:29.748Z,8.30
2019-02-25T09:06:30.782Z,8.30
2019-02-25T09:07:31.916Z,8.30
2019-02-25T09:08:32.939Z,8.30
2019-02-25T09:09:34.000Z,8.40
2019-02-25T09:10:35.035Z,8.40
2019-02-25T09:11:36.071Z,8.50
2019-02-25T09:12:37.233Z,8.50
2019-02-25T09:13:38.302Z,8.60
2019-02-25T09:14:39.329Z,8.60
2019-02-25T09:15:40.395Z,8.70
2019-02-25T09:16:41.423Z,8.80
2019-02-25T09:17:42.704Z,8.80
2019-02-25T09:18:43.827Z,8.90
2019-02-25T09:19:44.859Z,8.90
2019-02-25T09:20:45.896Z,8.90
2019-02-25T09:21:46.923Z,9.00
2019-02-25T09:22:47.976Z,9.00
2019-02-25T09:23:49.356Z,9.00
2019-02-25T09:24:50.372Z,9.00
2019-02-25T09:25:53.695Z,9.00
2019-02-25T09:26:54.781Z,9.00
2019-02-25T09:27:55.918Z,9.10
2019-02-25T09:28:57.466Z,9.10
2019-02-25T09:29:58.814Z,9.10
2019-02-25T09:30:59.911Z,9.10
2019-02-25T09:32:00.946Z,9.10
2019-02-25T09:33:01.969Z,9.10
2019-02-25T09:34:03.106Z,9.20
2019-02-25T09:35:04.657Z,9.20
2019-02-25T09:36:05.704Z,9.30
2019-02-25T09:37:06.741Z,9.30
2019-02-25T09:38:07.764Z,9.40
2019-02-25T09:39:09.285Z,9.40
2019-02-25T09:40:14.117Z,9.50
2019-02-25T09:41:15.136Z,9.50
2019-02-25T09:42:16.185Z,9.60
2019-02-25T09:43:17.205Z,9.70
2019-02-25T09:44:18.326Z,9.70
2019-02-25T09:45:19.453Z,9.80
2019-02-25T09:46:20.551Z,9.80
2019-02-25T09:47:21.576Z,9.90
2019-02-25T09:48:22.610Z,9.90
2019-02-25T09:49:23.626Z,10.00
2019-02-25T09:50:24.640Z,10.10
2019-02-25T09:51:25.676Z,10.10
2019-02-25T09:52:26.700Z,10.10
2019-02-25T09:53:27.861Z,10.20
2019-02-25T09:54:28.940Z,10.20
2019-02-25T09:55:29.977Z,10.30
2019-02-25T09:56:31.229Z,10.30
2019-02-25T09:57:32.259Z,10.30
2019-02-25T09:58:33.280Z,10.30
2019-02-25T09:59:34.305Z,10.40
2019-02-25T10:00:35.545Z,10.50
2019-02-25T10:01:36.565Z,10.50
2019-02-25T10:02:37.633Z,10.50
2019-02-25T10:03:38.660Z,10.50
2019-02-25T10:04:40.014Z,10.60
2019-02-25T10:05:42.772Z,10.60
2019-02-25T10:06:43.824Z,10.60
2019-02-25T10:07:44.837Z,10.70
2019-02-25T10:08:46.578Z,10.70
2019-02-25T10:09:47.773Z,10.70
2019-02-25T10:10:48.824Z,10.80
2019-02-25T10:11:49.848Z,10.80
2019-02-25T10:12:50.885Z,10.90
2019-02-25T10:13:52.017Z,10.90
2019-02-25T10:14:53.137Z,10.90
2019-02-25T10:15:54.185Z,10.90
2019-02-25T10:16:55.203Z,11.00
2019-02-25T10:17:56.242Z,11.00
2019-02-25T10:18:57.310Z,11.00
2019-02-25T10:19:58.311Z,11.10
2019-02-25T10:20:59.348Z,11.10
2019-02-25T10:22:00.702Z,11.10
2019-02-25T10:23:01.776Z,11.10
2019-02-25T10:24:02.792Z,11.10
2019-02-25T10:25:06.616Z,11.20
2019-02-25T10:26:07.653Z,11.10
2019-02-25T10:27:08.693Z,11.20
2019-02-25T10:28:09.731Z,11.20
2019-02-25T10:29:10.765Z,11.20
2019-02-25T10:30:14.389Z,11.30
2019-02-25T10:31:17.327Z,11.30
2019-02-25T10:32:18.332Z,11.30
2019-02-25T10:33:19.379Z,11.30
2019-02-25T10:34:20.796Z,11.40
2019-02-25T10:35:27.177Z,11.40
2019-02-25T10:36:28.349Z,11.50
2019-02-25T10:37:29.376Z,11.50
2019-02-25T10:38:30.406Z,11.50
2019-02-25T10:39:31.439Z,11.60
2019-02-25T10:40:32.456Z,11.60
2019-02-25T10:41:33.468Z,11.60
2019-02-25T10:42:36.082Z,11.60
2019-02-25T10:43:37.442Z,11.60
2019-02-25T10:44:40.206Z,11.60
2019-02-25T10:45:43.239Z,11.60
2019-02-25T10:46:44.963Z,11.60
2019-02-25T10:47:49.015Z,11.70
2019-02-25T10:48:54.265Z,11.70
2019-02-25T10:49:53.102Z,11.70
2019-02-25T10:50:56.276Z,11.80
2019-02-25T10:51:57.085Z,11.80
2019-02-25T10:53:03.375Z,11.90
2019-02-25T10:54:01.052Z,11.90
2019-02-25T10:55:14.183Z,12.00
2019-02-25T10:56:19.898Z,12.00
2019-02-25T10:57:23.871Z,12.10
2019-02-25T10:58:26.878Z,12.10
2019-02-25T10:59:27.800Z,12.20
2019-02-25T11:00:28.896Z,12.20
2019-02-25T11:01:29.913Z,12.30
2019-02-25T11:02:30.936Z,12.30
2019-02-25T11:03:31.961Z,12.40
2019-02-25T11:04:32.988Z,12.40
2019-02-25T11:05:34.023Z,12.40
2019-02-25T11:06:36.008Z,12.50
2019-02-25T11:07:39.832Z,12.60
2019-02-25T11:08:43.602Z,12.60
2019-02-25T11:09:59.559Z,12.60
2019-02-25T11:11:02.476Z,12.60
2019-02-25T11:12:03.554Z,12.70
2019-02-25T11:13:04.564Z,12.80
2019-02-25T11:14:07.118Z,12.80
2019-02-25T11:15:09.995Z,12.90
2019-02-25T11:16:13.981Z,12.90
2019-02-25T11:17:16.165Z,13.00
2019-02-25T11:18:20.283Z,13.00
2019-02-25T11:19:22.367Z,13.10
2019-02-25T11:20:24.448Z,13.10
2019-02-25T11:21:25.566Z,13.10
2019-02-25T11:22:26.627Z,13.20
2019-02-25T11:23:27.820Z,13.20
2019-02-25T11:24:28.892Z,13.30
2019-02-25T11:25:30.187Z,13.30
2019-02-25T11:26:32.920Z,13.40
2019-02-25T11:27:35.863Z,13.40
2019-02-25T11:28:39.178Z,13.40
2019-02-25T11:29:42.037Z,13.50
2019-02-25T11:30:44.878Z,13.50
2019-02-25T11:31:47.342Z,13.60
2019-02-25T11:32:49.592Z,13.60
2019-02-25T11:33:51.836Z,13.60
2019-02-25T11:34:52.868Z,13.70
2019-02-25T11:35:53.893Z,13.70
2019-02-25T11:36:57.207Z,13.70
2019-02-25T11:37:59.842Z,13.70
2019-02-25T11:39:02.466Z,13.80
2019-02-25T11:40:11.542Z,13.80
2019-02-25T11:41:12.572Z,13.80
2019-02-25T11:42:16.426Z,13.80
2019-02-25T11:43:18.660Z,13.90
2019-02-25T11:44:21.015Z,13.90
2019-02-25T11:45:22.630Z,13.90
2019-02-25T11:46:23.753Z,14.00
2019-02-25T11:47:24.804Z,14.00
2019-02-25T11:48:25.928Z,14.00
2019-02-25T11:49:26.972Z,14.10
2019-02-25T11:50:28.030Z,14.10
2019-02-25T11:51:29.041Z,14.10
2019-02-25T11:52:30.214Z,14.20
2019-02-25T11:53:31.240Z,14.20
2019-02-25T11:54:32.336Z,14.20
2019-02-25T11:55:33.409Z,14.30
2019-02-25T11:56:34.439Z,14.30
2019-02-25T11:57:35.519Z,14.40
2019-02-25T11:58:36.583Z,14.40
2019-02-25T11:59:37.634Z,14.50
2019-02-25T12:00:39.866Z,14.50
2019-02-25T12:01:41.198Z,14.60
2019-02-25T12:02:42.331Z,14.60
2019-02-25T12:03:43.357Z,14.60
2019-02-25T12:04:44.405Z,14.60
2019-02-25T12:05:45.520Z,14.70
2019-02-25T12:06:46.559Z,14.70
2019-02-25T12:07:47.576Z,14.70
2019-02-25T12:08:48.660Z,14.70
2019-02-25T12:09:49.685Z,14.80
2019-02-25T12:10:50.718Z,14.90
2019-02-25T12:11:51.733Z,14.90
2019-02-25T12:12:52.776Z,14.90
2019-02-25T12:13:53.796Z,14.90
2019-02-25T12:14:54.820Z,14.90
2019-02-25T12:15:55.832Z,14.90
2019-02-25T12:16:56.849Z,15.00
2019-02-25T12:17:57.874Z,15.00
2019-02-25T12:18:58.903Z,15.10
2019-02-25T12:19:59.924Z,15.10
2019-02-25T12:21:00.937Z,15.10
2019-02-25T12:22:01.954Z,15.10
2019-02-25T12:23:03.093Z,15.10
2019-02-25T12:24:04.118Z,15.10
2019-02-25T12:25:10.768Z,15.10
2019-02-25T12:26:11.779Z,15.20
2019-02-25T12:27:12.823Z,15.20
2019-02-25T12:28:13.828Z,15.20
2019-02-25T12:29:14.862Z,15.20
2019-02-25T12:30:27.436Z,15.20
2019-02-25T12:31:28.592Z,15.30
2019-02-25T12:32:29.690Z,15.30
2019-02-25T12:33:30.720Z,15.30
2019-02-25T12:34:31.760Z,15.40
2019-02-25T12:35:32.814Z,15.40
2019-02-25T12:36:33.850Z,15.50
2019-02-25T12:37:34.888Z,15.50
2019-02-25T12:38:35.913Z,15.50
2019-02-25T12:39:36.949Z,15.60
2019-02-25T12:40:37.977Z,15.60
2019-02-25T12:41:39.005Z,15.60
2019-02-25T12:42:40.040Z,15.60
2019-02-25T12:43:41.066Z,15.70
2019-02-25T12:44:42.092Z,15.70
2019-02-25T12:45:43.116Z,15.70
2019-02-25T12:46:44.243Z,15.70
2019-02-25T12:47:45.329Z,15.70
2019-02-25T12:48:46.337Z,15.80
2019-02-25T12:49:47.359Z,15.80
2019-02-25T12:50:48.387Z,15.80
2019-02-25T12:51:49.411Z,15.80
2019-02-25T12:52:50.440Z,15.90
2019-02-25T12:53:53.684Z,15.90
2019-02-25T12:54:55.209Z,15.90
2019-02-25T12:55:56.287Z,16.00
2019-02-25T12:56:57.297Z,16.10
2019-02-25T12:57:58.333Z,16.10
2019-02-25T12:58:59.427Z,16.20
2019-02-25T13:00:00.558Z,16.20
2019-02-25T13:01:01.659Z,16.30
2019-02-25T13:02:02.696Z,16.30
2019-02-25T13:03:03.783Z,16.30
2019-02-25T13:04:04.869Z,16.30
2019-02-25T13:05:12.622Z,16.40
2019-02-25T13:06:13.701Z,16.40
2019-02-25T13:07:14.717Z,16.50
2019-02-25T13:08:15.736Z,16.50
2019-02-25T13:09:16.780Z,16.50
2019-02-25T13:10:17.916Z,16.60
2019-02-25T13:11:18.927Z,16.60
2019-02-25T13:12:19.957Z,16.70
2019-02-25T13:13:21.077Z,16.70
2019-02-25T13:14:22.117Z,16.70
2019-02-25T13:15:23.151Z,16.80
2019-02-25T13:16:24.250Z,16.80
2019-02-25T13:17:25.494Z,16.90
2019-02-25T13:18:26.500Z,16.90
2019-02-25T13:19:27.524Z,16.90
2019-02-25T13:20:28.533Z,17.00
2019-02-25T13:21:29.578Z,17.00
2019-02-25T13:22:30.584Z,16.90
2019-02-25T13:23:31.640Z,17.00
2019-02-25T13:24:33.490Z,17.10
2019-02-25T13:25:35.613Z,17.20
2019-02-25T13:26:36.921Z,17.30
2019-02-25T13:27:38.955Z,17.30
2019-02-25T13:28:40.294Z,17.30
2019-02-25T13:29:41.330Z,17.30
2019-02-25T13:30:42.348Z,17.40
2019-02-25T13:31:43.366Z,17.40
2019-02-25T13:32:44.436Z,17.50
2019-02-25T13:33:45.440Z,17.50
2019-02-25T13:34:46.592Z,17.50
2019-02-25T13:35:47.604Z,17.50
2019-02-25T13:36:48.916Z,17.60
2019-02-25T13:37:49.921Z,17.60
2019-02-25T13:38:51.045Z,17.70
2019-02-25T13:39:52.161Z,17.70